createdAt,value
2022-09-28T00:02:00.523Z,84.46
2022-09-28T00:04:27.454Z,84.33
2022-09-28T00:06:53.901Z,84.48
2022-09-28T00:09:20.471Z,83.99
2022-09-28T00:11:47.384Z,84.13
2022-09-28T00:14:13.917Z,84.39
2022-09-28T00:16:43.385Z,84.06
2022-09-28T00:19:11.430Z,84.16
2022-09-28T00:21:40.019Z,84.10
2022-09-28T00:24:13.342Z,84.06
2022-09-28T00:26:51.442Z,83.62
2022-09-28T00:29:35.603Z,84.28
2022-09-28T00:32:05.579Z,84.07
2022-09-28T00:34:37.634Z,84.32
2022-09-28T00:37:05.945Z,84.32
2022-09-28T00:39:32.425Z,84.33
2022-09-28T00:41:59.661Z,84.34
2022-09-28T00:44:26.224Z,83.75
2022-09-28T00:46:56.266Z,83.77
2022-09-28T00:49:38.826Z,83.58
2022-09-28T00:52:08.482Z,83.91
2022-09-28T00:54:36.059Z,83.68
2022-09-28T00:57:03.382Z,83.89
2022-09-28T00:59:32.430Z,84.04
2022-09-28T01:01:58.859Z,83.87
2022-09-28T01:04:29.766Z,83.38
2022-09-28T01:06:58.037Z,83.80
2022-09-28T01:09:26.935Z,83.54
2022-09-28T01:11:53.613Z,83.57
2022-09-28T01:14:20.638Z,83.86
2022-09-28T01:16:57.009Z,83.54
2022-09-28T01:19:52.173Z,83.28
2022-09-28T01:22:31.442Z,82.79
2022-09-28T01:25:12.321Z,83.01
2022-09-28T01:27:49.978Z,83.16
2022-09-28T01:30:20.312Z,83.42
2022-09-28T01:33:03.522Z,83.43
2022-09-28T01:36:12.543Z,83.32
2022-09-28T01:38:48.768Z,82.91
2022-09-28T01:41:17.805Z,83.48
2022-09-28T01:43:51.577Z,82.87
2022-09-28T01:46:21.768Z,83.13
2022-09-28T01:48:58.691Z,83.20
2022-09-28T01:51:34.723Z,83.06
2022-09-28T01:54:11.877Z,83.74
2022-09-28T01:56:50.589Z,84.13
2022-09-28T01:59:24.808Z,83.89
2022-09-28T02:02:09.748Z,83.75
2022-09-28T02:04:43.973Z,83.78
2022-09-28T02:07:16.340Z,83.75
2022-09-28T02:09:48.982Z,84.03
2022-09-28T02:12:25.533Z,83.65
2022-09-28T02:14:59.006Z,83.69
2022-09-28T02:17:25.538Z,84.31
2022-09-28T02:19:52.022Z,84.04
2022-09-28T02:22:33.980Z,84.12
2022-09-28T02:25:09.825Z,84.12
2022-09-28T02:27:43.924Z,83.60
2022-09-28T02:30:11.810Z,83.44
2022-09-28T02:32:42.991Z,84.04
2022-09-28T02:35:12.294Z,84.06
2022-09-28T02:37:40.182Z,84.17
2022-09-28T02:40:14.121Z,83.96
2022-09-28T02:42:56.504Z,83.94
2022-09-28T02:45:37.675Z,84.18
2022-09-28T02:48:43.263Z,84.20
2022-09-28T02:51:36.082Z,84.40
2022-09-28T02:54:24.794Z,84.59
2022-09-28T02:57:00.545Z,84.57
2022-09-28T02:59:53.500Z,84.78
2022-09-28T03:02:27.743Z,84.32
2022-09-28T03:05:15.388Z,84.84
2022-09-28T03:07:58.248Z,84.71
2022-09-28T03:10:43.228Z,84.92
2022-09-28T03:13:11.981Z,84.65
2022-09-28T03:15:38.749Z,84.60
2022-09-28T03:18:05.242Z,84.54
2022-09-28T03:20:33.379Z,84.28
2022-09-28T03:23:23.407Z,83.99
2022-09-28T03:25:47.734Z,83.96
2022-09-28T03:28:14.256Z,83.54
2022-09-28T03:30:41.676Z,83.74
2022-09-28T03:33:08.727Z,83.55
2022-09-28T03:35:35.411Z,83.34
2022-09-28T03:38:02.110Z,82.92
2022-09-28T03:40:30.637Z,83.03
2022-09-28T03:42:57.084Z,83.12
2022-09-28T03:45:23.576Z,82.83
2022-09-28T03:47:51.230Z,83.12
2022-09-28T03:50:18.678Z,83.11
2022-09-28T03:52:45.035Z,82.86
2022-09-28T03:55:11.555Z,82.34
2022-09-28T03:57:38.331Z,82.60
2022-09-28T04:00:06.524Z,82.54
2022-09-28T04:02:40.397Z,82.37
2022-09-28T04:05:07.129Z,82.71
2022-09-28T04:07:33.519Z,82.78
2022-09-28T04:09:59.983Z,83.27
2022-09-28T04:12:26.389Z,82.76
2022-09-28T04:14:52.902Z,83.23
2022-09-28T04:17:19.355Z,82.99
2022-09-28T04:19:47.311Z,83.05
2022-09-28T04:22:16.444Z,83.13
2022-09-28T04:24:43.610Z,83.20
2022-09-28T04:27:28.701Z,83.41
2022-09-28T04:29:55.566Z,83.16
2022-09-28T04:32:22.008Z,83.46
2022-09-28T04:34:48.473Z,83.14
2022-09-28T04:37:15.004Z,83.13
2022-09-28T04:39:44.047Z,82.59
2022-09-28T04:42:15.973Z,82.51
2022-09-28T04:44:42.492Z,82.80
2022-09-28T04:47:09.482Z,82.49
2022-09-28T04:49:58.816Z,82.82
2022-09-28T04:52:30.828Z,82.39
2022-09-28T04:54:57.329Z,83.02
2022-09-28T04:57:25.372Z,83.04
2022-09-28T04:59:51.839Z,82.45
2022-09-28T05:02:19.009Z,82.60
2022-09-28T05:05:04.883Z,82.80
2022-09-28T05:07:49.821Z,82.60
2022-09-28T05:10:17.151Z,82.02
2022-09-28T05:12:43.654Z,82.20
2022-09-28T05:15:11.286Z,81.58
2022-09-28T05:17:37.828Z,81.62
2022-09-28T05:20:20.082Z,81.39
2022-09-28T05:22:46.546Z,81.69
2022-09-28T05:25:13.152Z,82.48
2022-09-28T05:27:58.172Z,82.72
2022-09-28T05:30:38.439Z,83.79
2022-09-28T05:33:23.315Z,83.89
2022-09-28T05:36:01.290Z,84.29
2022-09-28T05:38:30.144Z,84.20
2022-09-28T05:40:56.820Z,84.70
2022-09-28T05:43:23.972Z,84.05
2022-09-28T05:45:55.414Z,84.04
2022-09-28T05:48:22.990Z,84.18
2022-09-28T05:50:53.126Z,84.68
2022-09-28T05:53:21.135Z,84.26
2022-09-28T05:55:48.477Z,84.16
2022-09-28T05:58:15.765Z,84.07
2022-09-28T06:00:42.365Z,83.62
2022-09-28T06:03:12.153Z,83.48
2022-09-28T06:05:39.605Z,83.35
2022-09-28T06:08:08.318Z,83.92
2022-09-28T06:10:35.222Z,83.40
2022-09-28T06:13:02.626Z,83.39
2022-09-28T06:15:31.012Z,83.51
2022-09-28T06:18:00.925Z,83.29
2022-09-28T06:21:06.318Z,83.53
2022-09-28T06:23:43.586Z,83.48
2022-09-28T06:26:12.476Z,83.77
2022-09-28T06:28:39.924Z,83.75
2022-09-28T06:31:06.365Z,83.59
2022-09-28T06:33:41.996Z,83.97
2022-09-28T06:36:09.818Z,83.23
2022-09-28T06:38:38.028Z,83.50
2022-09-28T06:41:04.782Z,82.00
2022-09-28T06:43:34.597Z,81.63
2022-09-28T06:46:20.825Z,81.14
2022-09-28T06:48:50.230Z,77.92
2022-09-28T06:51:20.323Z,76.26
2022-09-28T06:54:16.022Z,74.48
2022-09-28T06:56:53.620Z,72.28
2022-09-28T06:59:20.325Z,70.44
2022-09-28T07:01:46.998Z,68.24
2022-09-28T07:04:31.868Z,66.44
2022-09-28T07:07:16.756Z,65.94
2022-09-28T07:10:01.601Z,64.04
2022-09-28T07:12:37.188Z,63.24
2022-09-28T07:15:16.901Z,62.45
2022-09-28T07:17:56.789Z,61.34
2022-09-28T07:20:28.385Z,60.17
2022-09-28T07:23:11.658Z,59.04
2022-09-28T07:26:07.978Z,59.29
2022-09-28T07:28:54.217Z,59.31
2022-09-28T07:31:40.007Z,58.51
2022-09-28T07:34:24.883Z,58.09
2022-09-28T07:37:07.045Z,57.52
2022-09-28T07:39:53.665Z,57.51
2022-09-28T07:42:20.553Z,57.92
2022-09-28T07:44:47.082Z,58.94
2022-09-28T07:47:13.728Z,59.93
2022-09-28T07:49:59.721Z,58.99
2022-09-28T07:52:47.808Z,58.81
2022-09-28T07:55:22.794Z,59.19
2022-09-28T07:58:04.048Z,59.70
2022-09-28T08:00:41.849Z,58.45
2022-09-28T08:03:08.346Z,57.47
2022-09-28T08:05:35.842Z,57.31
2022-09-28T08:08:02.325Z,57.42
2022-09-28T08:10:29.320Z,59.10
2022-09-28T08:13:08.824Z,58.92
2022-09-28T08:15:54.859Z,59.12
2022-09-28T08:18:32.313Z,58.54
2022-09-28T08:21:17.693Z,57.62
2022-09-28T08:23:44.376Z,56.23
2022-09-28T08:26:15.200Z,56.35
2022-09-28T08:28:45.114Z,58.17
2022-09-28T08:31:32.162Z,59.17
2022-09-28T08:34:09.606Z,59.60
2022-09-28T08:36:57.641Z,60.20
2022-09-28T08:39:50.376Z,61.05
2022-09-28T08:42:42.976Z,62.35
2022-09-28T08:45:30.662Z,62.73
2022-09-28T08:48:51.823Z,62.02
2022-09-28T08:51:50.723Z,60.69
2022-09-28T08:54:54.550Z,57.47
2022-09-28T08:58:10.023Z,56.25
2022-09-28T09:00:42.565Z,54.84
2022-09-28T09:03:16.181Z,54.46
2022-09-28T09:06:07.693Z,55.19
2022-09-28T09:09:18.315Z,55.10
2022-09-28T09:12:10.562Z,54.84
2022-09-28T09:15:09.770Z,53.32
2022-09-28T09:17:56.330Z,52.73
2022-09-28T09:20:49.138Z,52.14
2022-09-28T09:23:47.671Z,51.61
2022-09-28T09:26:25.376Z,50.91
2022-09-28T09:28:58.826Z,51.17
2022-09-28T09:31:50.021Z,50.43
2022-09-28T09:34:32.325Z,52.21
2022-09-28T09:37:17.773Z,52.18
2022-09-28T09:40:10.138Z,52.83
2022-09-28T09:43:18.311Z,53.44
2022-09-28T09:46:24.551Z,54.60
2022-09-28T09:49:20.747Z,55.51
2022-09-28T09:52:03.143Z,55.38
2022-09-28T09:54:37.922Z,55.50
2022-09-28T09:57:24.964Z,55.14
2022-09-28T10:00:14.931Z,54.33
2022-09-28T10:02:49.607Z,54.58
2022-09-28T10:05:37.259Z,53.91
2022-09-28T10:08:18.127Z,53.77
2022-09-28T10:10:52.512Z,53.52
2022-09-28T10:13:20.520Z,51.09
2022-09-28T10:15:49.001Z,50.93
2022-09-28T10:18:23.232Z,50.47
2022-09-28T10:21:25.774Z,49.04
2022-09-28T10:24:02.943Z,47.80
2022-09-28T10:26:36.975Z,49.79
2022-09-28T10:29:14.876Z,49.26
2022-09-28T10:31:44.499Z,49.13
2022-09-28T10:34:28.846Z,47.06
2022-09-28T10:37:01.473Z,47.13
2022-09-28T10:39:46.368Z,47.74
2022-09-28T10:42:20.358Z,48.56
2022-09-28T10:44:59.189Z,49.24
2022-09-28T10:47:33.562Z,49.49
2022-09-28T10:50:00.923Z,49.69
2022-09-28T10:52:42.055Z,49.83
2022-09-28T10:55:20.507Z,50.90
2022-09-28T10:57:48.019Z,51.06
2022-09-28T11:00:38.978Z,49.95
2022-09-28T11:03:25.401Z,49.93
2022-09-28T11:06:05.774Z,50.76
2022-09-28T11:08:42.751Z,51.09
2022-09-28T11:11:16.678Z,50.91
2022-09-28T11:13:55.896Z,50.02
2022-09-28T11:16:32.503Z,50.29
2022-09-28T11:19:06.761Z,50.62
2022-09-28T11:21:43.861Z,49.92
2022-09-28T11:24:23.214Z,50.33
2022-09-28T11:27:02.163Z,50.66
2022-09-28T11:29:41.948Z,47.89
2022-09-28T11:32:31.416Z,47.35
2022-09-28T11:35:27.740Z,48.56
2022-09-28T11:38:17.652Z,49.52
2022-09-28T11:41:30.589Z,49.74
2022-09-28T11:44:18.680Z,50.56
2022-09-28T11:47:04.715Z,50.67
2022-09-28T11:50:22.931Z,51.08
2022-09-28T11:52:59.012Z,51.52
2022-09-28T11:55:38.629Z,51.46
2022-09-28T11:58:14.168Z,51.45
2022-09-28T12:00:54.350Z,52.34
2022-09-28T12:04:05.609Z,52.30
2022-09-28T12:06:47.725Z,51.68
2022-09-28T12:09:36.065Z,51.92
2022-09-28T12:12:22.343Z,52.29
2022-09-28T12:14:57.302Z,52.22
2022-09-28T12:17:30.696Z,51.84
2022-09-28T12:20:23.017Z,51.69
2022-09-28T12:23:26.722Z,50.60
2022-09-28T12:26:02.512Z,50.68
2022-09-28T12:28:40.619Z,51.30
2022-09-28T12:31:20.551Z,51.56
2022-09-28T12:33:50.745Z,51.77
2022-09-28T12:36:32.536Z,50.86
2022-09-28T12:39:35.764Z,51.27
2022-09-28T12:42:45.267Z,50.64
2022-09-28T12:45:38.904Z,52.19
2022-09-28T12:48:33.242Z,52.64
2022-09-28T12:51:30.217Z,53.50
2022-09-28T12:54:21.637Z,55.10
2022-09-28T12:57:12.816Z,53.18
2022-09-28T12:59:49.812Z,51.81
2022-09-28T13:02:40.997Z,52.37
2022-09-28T13:05:22.357Z,53.34
2022-09-28T13:08:07.616Z,53.65
2022-09-28T13:11:03.158Z,54.19
2022-09-28T13:13:43.629Z,51.71
2022-09-28T13:16:27.145Z,53.69
2022-09-28T13:19:11.928Z,51.51
2022-09-28T13:21:47.990Z,51.47
2022-09-28T13:24:32.208Z,52.92
2022-09-28T13:27:05.629Z,52.00
2022-09-28T13:29:34.819Z,50.38
2022-09-28T13:32:03.171Z,51.96
2022-09-28T13:34:33.173Z,52.53
2022-09-28T13:37:16.718Z,53.40
2022-09-28T13:39:46.080Z,53.13
2022-09-28T13:42:32.856Z,53.11
2022-09-28T13:45:21.221Z,52.49
2022-09-28T13:47:59.848Z,52.94
2022-09-28T13:50:56.323Z,54.28
2022-09-28T13:53:34.818Z,54.60
2022-09-28T13:56:27.463Z,53.01
2022-09-28T13:59:12.744Z,51.32
2022-09-28T14:01:42.631Z,49.38
2022-09-28T14:04:19.725Z,48.13
2022-09-28T14:07:10.344Z,49.02
2022-09-28T14:09:41.157Z,50.44
2022-09-28T14:12:35.228Z,50.27
2022-09-28T14:15:07.135Z,51.94
2022-09-28T14:17:51.314Z,51.38
2022-09-28T14:20:21.246Z,51.05
2022-09-28T14:23:14.374Z,51.39
2022-09-28T14:26:03.920Z,52.13
2022-09-28T14:29:09.996Z,52.50
2022-09-28T14:31:42.278Z,52.12
2022-09-28T14:34:24.932Z,52.57
2022-09-28T14:37:10.474Z,53.40
2022-09-28T14:39:57.532Z,53.28
2022-09-28T14:42:25.595Z,53.28
2022-09-28T14:45:06.817Z,52.51
2022-09-28T14:47:41.142Z,52.79
2022-09-28T14:50:25.825Z,52.68
2022-09-28T14:53:04.181Z,50.99
2022-09-28T14:55:43.220Z,51.50
2022-09-28T14:58:19.463Z,53.20
2022-09-28T15:00:47.992Z,55.24
2022-09-28T15:03:14.664Z,54.26
2022-09-28T15:05:49.250Z,54.30
2022-09-28T15:08:20.863Z,54.31
2022-09-28T15:10:50.335Z,51.65
2022-09-28T15:13:21.726Z,50.68
2022-09-28T15:15:51.651Z,50.23
2022-09-28T15:18:48.994Z,49.83
2022-09-28T15:21:16.360Z,50.34
2022-09-28T15:23:45.114Z,50.46
2022-09-28T15:26:27.399Z,51.61
2022-09-28T15:28:54.571Z,52.04
2022-09-28T15:31:24.209Z,52.77
2022-09-28T15:34:09.538Z,52.89
2022-09-28T15:36:42.222Z,53.38
2022-09-28T15:39:31.651Z,53.64
2022-09-28T15:41:59.394Z,54.14
2022-09-28T15:44:36.222Z,54.22
2022-09-28T15:47:09.679Z,54.07
2022-09-28T15:49:58.445Z,52.78
2022-09-28T15:52:37.236Z,52.96
2022-09-28T15:55:22.652Z,53.07
2022-09-28T15:57:49.291Z,53.11
2022-09-28T16:00:21.382Z,52.88
2022-09-28T16:03:03.710Z,54.42
2022-09-28T16:05:40.807Z,55.81
2022-09-28T16:08:32.941Z,57.29
2022-09-28T16:11:06.299Z,57.44
2022-09-28T16:13:34.165Z,57.23
2022-09-28T16:16:00.826Z,57.76
2022-09-28T16:18:29.900Z,57.97
2022-09-28T16:21:18.681Z,58.32
2022-09-28T16:23:52.206Z,59.97
2022-09-28T16:26:31.266Z,59.72
2022-09-28T16:28:58.311Z,61.34
2022-09-28T16:31:28.665Z,61.54
2022-09-28T16:34:01.474Z,62.86
2022-09-28T16:36:39.523Z,61.81
2022-09-28T16:39:05.961Z,60.31
2022-09-28T16:41:32.388Z,61.75
2022-09-28T16:44:02.071Z,62.10
2022-09-28T16:46:36.225Z,61.99
2022-09-28T16:49:05.900Z,62.79
2022-09-28T16:51:33.005Z,63.41
2022-09-28T16:54:39.709Z,64.47
2022-09-28T16:57:08.026Z,65.06
2022-09-28T16:59:38.266Z,63.99
2022-09-28T17:05:13.436Z,63.67
2022-09-28T17:07:40.269Z,64.68
2022-09-28T17:11:09.879Z,64.95
2022-09-28T17:13:34.794Z,65.71
2022-09-28T17:16:04.268Z,66.48
2022-09-28T17:18:31.915Z,66.87
2022-09-28T17:21:03.389Z,66.68
2022-09-28T17:23:30.179Z,66.96
2022-09-28T17:25:58.899Z,67.13
2022-09-28T17:28:29.854Z,66.86
2022-09-28T17:30:56.328Z,67.22
2022-09-28T17:33:22.924Z,66.84
2022-09-28T17:35:52.490Z,67.16
2022-09-28T17:38:18.922Z,67.57
2022-09-28T17:40:47.876Z,67.39
2022-09-28T17:43:14.291Z,67.74
2022-09-28T17:45:40.928Z,67.36
2022-09-28T17:48:12.648Z,67.83
2022-09-28T17:50:42.174Z,68.04
2022-09-28T17:53:11.721Z,68.15
2022-09-28T17:55:39.012Z,75.58
2022-09-28T17:58:21.898Z,70.21
2022-09-28T18:00:50.517Z,67.33
2022-09-28T18:03:20.042Z,68.43
2022-09-28T18:05:49.676Z,68.49
2022-09-28T18:08:19.349Z,68.50
2022-09-28T18:10:48.602Z,69.46
2022-09-28T18:13:15.253Z,70.06
2022-09-28T18:15:42.777Z,70.18
2022-09-28T18:18:09.783Z,70.76
2022-09-28T18:20:36.703Z,70.93
2022-09-28T18:23:03.823Z,71.44
2022-09-28T18:25:30.340Z,71.86
2022-09-28T18:27:57.492Z,71.93
2022-09-28T18:30:24.921Z,72.74
2022-09-28T18:32:51.489Z,72.59
2022-09-28T18:35:22.733Z,72.13
2022-09-28T18:37:51.895Z,71.82
2022-09-28T18:40:19.394Z,72.11
2022-09-28T18:42:46.183Z,72.42
2022-09-28T18:45:13.219Z,71.87
2022-09-28T18:47:39.922Z,71.63
2022-09-28T18:50:06.897Z,72.09
2022-09-28T19:01:25.255Z,72.46
2022-09-28T19:03:48.041Z,72.47
2022-09-28T19:06:16.393Z,72.70
2022-09-28T19:08:43.319Z,72.77
2022-09-28T19:11:12.324Z,74.61
2022-09-28T19:13:39.589Z,75.09
2022-09-28T19:16:14.612Z,75.26
2022-09-28T19:18:41.983Z,75.63
2022-09-28T19:21:10.974Z,75.21
2022-09-28T19:23:38.410Z,76.34
2022-09-28T19:26:08.377Z,76.87
2022-09-28T19:28:35.680Z,76.58
2022-09-28T19:31:03.783Z,77.89
2022-09-28T19:33:30.184Z,78.77
2022-09-28T19:36:11.110Z,77.15
2022-09-28T19:38:39.234Z,77.72
2022-09-28T19:41:39.406Z,76.72
2022-09-28T19:44:27.109Z,76.96
2022-09-28T19:47:07.350Z,76.84
2022-09-28T19:49:39.501Z,76.47
2022-09-28T19:52:15.683Z,75.82
2022-09-28T19:54:54.250Z,74.92
2022-09-28T19:57:21.309Z,74.95
2022-09-28T19:59:52.124Z,74.00
2022-09-28T20:02:19.901Z,73.67
2022-09-28T20:04:46.782Z,75.01
2022-09-28T20:07:13.528Z,74.98
2022-09-28T20:09:40.009Z,75.13
2022-09-28T20:12:06.464Z,74.54
2022-09-28T20:14:36.534Z,74.84
2022-09-28T20:17:05.320Z,75.16
2022-09-28T20:19:31.677Z,76.12
2022-09-28T20:22:02.077Z,75.85
2022-09-28T20:24:28.956Z,74.32
2022-09-28T20:26:55.830Z,75.11
2022-09-28T20:29:24.197Z,75.39
2022-09-28T20:31:51.814Z,75.50
2022-09-28T20:34:19.451Z,75.75
2022-09-28T20:36:45.951Z,75.18
2022-09-28T20:39:12.575Z,75.75
2022-09-28T20:41:39.151Z,75.39
2022-09-28T20:44:06.635Z,75.95
2022-09-28T20:46:36.556Z,74.85
2022-09-28T20:49:04.152Z,74.76
2022-09-28T20:51:31.167Z,74.06
2022-09-28T20:53:58.863Z,75.78
2022-09-28T20:56:31.523Z,76.33
2022-09-28T20:58:58.007Z,75.88
2022-09-28T21:01:29.843Z,74.80
2022-09-28T21:03:58.495Z,75.58
2022-09-28T21:06:37.307Z,75.75
2022-09-28T21:09:05.269Z,75.70
2022-09-28T21:11:32.948Z,75.64
2022-09-28T21:14:01.631Z,75.97
2022-09-28T21:16:31.316Z,75.78
2022-09-28T21:18:58.272Z,76.11
2022-09-28T21:21:25.336Z,75.91
2022-09-28T21:23:52.758Z,75.97
2022-09-28T21:26:25.055Z,75.62
2022-09-28T21:29:02.473Z,75.28
2022-09-28T21:31:32.871Z,75.29
2022-09-28T21:33:59.457Z,75.69
2022-09-28T21:36:26.033Z,75.80
2022-09-28T21:38:54.088Z,75.68
2022-09-28T21:41:20.872Z,75.65
2022-09-28T21:43:47.314Z,76.39
2022-09-28T21:46:14.037Z,76.22
2022-09-28T21:48:40.508Z,75.62
2022-09-28T21:51:09.139Z,75.92
2022-09-28T21:53:37.297Z,76.10
2022-09-28T21:56:06.506Z,76.62
2022-09-28T21:58:35.329Z,77.06
2022-09-28T22:01:14.595Z,76.55
2022-09-28T22:03:43.859Z,77.13
2022-09-28T22:06:11.032Z,77.88
2022-09-28T22:08:38.698Z,78.38
2022-09-28T22:11:13.202Z,78.51
2022-09-28T22:13:51.176Z,78.60
2022-09-28T22:16:19.683Z,77.47
2022-09-28T22:18:46.768Z,76.62
2022-09-28T22:21:23.223Z,77.24
2022-09-28T22:23:49.932Z,76.57
2022-09-28T22:26:25.959Z,75.89
2022-09-28T22:28:55.232Z,75.99
2022-09-28T22:31:30.612Z,75.79
2022-09-28T22:33:57.810Z,75.67
2022-09-28T22:36:25.784Z,74.99
2022-09-28T22:38:53.628Z,74.15
2022-09-28T22:41:22.941Z,74.00
2022-09-28T22:43:50.504Z,74.90
2022-09-28T22:46:28.376Z,75.30
2022-09-28T22:48:57.335Z,77.02
2022-09-28T22:51:25.628Z,76.54
2022-09-28T22:53:52.479Z,76.50
2022-09-28T22:56:19.391Z,75.97
2022-09-28T22:58:46.503Z,75.43
2022-09-28T23:01:19.686Z,75.88
2022-09-28T23:03:46.382Z,75.49
2022-09-28T23:06:16.585Z,75.87
2022-09-28T23:08:44.669Z,75.55
2022-09-28T23:11:11.386Z,76.71
2022-09-28T23:13:38.334Z,76.61
2022-09-28T23:16:06.983Z,77.60
2022-09-28T23:18:37.053Z,77.89
2022-09-28T23:21:06.151Z,77.65
2022-09-28T23:23:33.432Z,78.29
2022-09-28T23:26:00.498Z,78.66
2022-09-28T23:28:27.240Z,78.86
2022-09-28T23:30:54.072Z,78.22
2022-09-28T23:33:21.565Z,78.23
2022-09-28T23:35:48.269Z,78.11
2022-09-28T23:38:17.943Z,78.94
2022-09-28T23:40:46.242Z,79.43
2022-09-28T23:43:13.327Z,79.52
2022-09-28T23:45:39.721Z,79.19
2022-09-28T23:48:06.235Z,79.80
2022-09-28T23:50:32.634Z,79.18
2022-09-28T23:52:59.096Z,78.51
2022-09-28T23:55:25.517Z,78.37
2022-09-28T23:57:55.396Z,79.34
